Time;durP1;ratioP1;P1;durP2;ratioP2;P2;SDS_P1;SDS_P2;PMS_P1;PMS_P2;Temp;Humidity;BMP_temperature;BMP_pressure;BME280_temperature;BME280_humidity;BME280_pressure;Samples;Min_cycle;Max_cycle;Signal;HPM_P1;HPM_P2
2022/11/12 00:00:13;;;;;;;2.92;2.38;;;8.50;99.90;;;;;;5042979;28;20274;-70
2022/11/12 00:02:41;;;;;;;3.03;2.83;;;8.40;99.90;;;;;;5041965;28;20724;-76
2022/11/12 00:05:10;;;;;;;2.67;2.58;;;8.40;99.90;;;;;;5045660;28;20199;-70
2022/11/12 00:07:37;;;;;;;2.33;2.22;;;8.40;99.90;;;;;;5039328;28;20234;-72
2022/11/12 00:10:05;;;;;;;2.78;2.58;;;8.40;99.90;;;;;;5041711;28;20207;-76
2022/11/12 00:12:32;;;;;;;2.60;2.50;;;8.30;99.90;;;;;;5043001;28;20222;-73
2022/11/12 00:14:59;;;;;;;2.72;2.53;;;8.30;99.90;;;;;;5040212;28;21036;-73
2022/11/12 00:17:26;;;;;;;2.38;2.28;;;8.30;99.90;;;;;;5042521;28;20223;-74
2022/11/12 00:19:54;;;;;;;2.60;2.10;;;8.30;99.90;;;;;;5046585;28;20203;-76
2022/11/12 00:22:23;;;;;;;2.15;2.05;;;8.30;99.90;;;;;;5036374;28;20219;-75
2022/11/12 00:24:50;;;;;;;2.33;2.22;;;8.30;99.90;;;;;;5043752;28;20233;-74
2022/11/12 00:27:17;;;;;;;2.78;2.58;;;8.30;99.90;;;;;;5033575;28;20298;-75
2022/11/12 00:29:44;;;;;;;2.78;2.63;;;8.30;99.90;;;;;;5049651;28;20314;-74
2022/11/12 00:32:12;;;;;;;2.50;2.40;;;8.40;99.90;;;;;;5047894;28;20219;-73
2022/11/12 00:34:39;;;;;;;2.50;2.30;;;8.40;99.90;;;;;;5043339;28;20298;-73
2022/11/12 00:37:07;;;;;;;2.08;1.98;;;8.30;99.90;;;;;;5042367;28;20227;-74
2022/11/12 00:39:35;;;;;;;2.72;2.60;;;8.30;99.90;;;;;;5038536;28;20195;-71
2022/11/12 00:42:03;;;;;;;2.50;2.40;;;8.20;99.90;;;;;;5039699;28;20230;-72
2022/11/12 00:44:30;;;;;;;2.67;2.55;;;8.20;99.90;;;;;;5045121;28;20207;-73
2022/11/12 00:46:57;;;;;;;2.38;2.28;;;8.30;99.90;;;;;;5045842;28;20223;-73
2022/11/12 00:49:24;;;;;;;2.55;2.33;;;8.20;99.90;;;;;;5045421;28;20310;-75
2022/11/12 00:51:52;;;;;;;2.47;2.38;;;8.20;99.90;;;;;;5043305;28;20225;-74
2022/11/12 00:54:19;;;;;;;2.45;2.35;;;8.20;99.90;;;;;;5041502;28;20214;-72
2022/11/12 00:56:48;;;;;;;2.55;2.40;;;8.20;99.90;;;;;;5042023;28;20203;-73
2022/11/12 00:59:16;;;;;;;2.45;2.35;;;8.20;99.90;;;;;;5039620;28;20212;-72
2022/11/12 01:01:43;;;;;;;2.08;1.98;;;8.20;99.90;;;;;;5039435;28;20227;-77
2022/11/12 01:04:10;;;;;;;2.55;2.40;;;8.10;99.90;;;;;;5042399;28;20226;-73
2022/11/12 01:06:40;;;;;;;2.60;1.95;;;8.10;99.90;;;;;;5039688;28;20199;-72
2022/11/12 01:09:07;;;;;;;2.60;2.50;;;8.10;99.90;;;;;;5042442;28;20227;-73
2022/11/12 01:11:35;;;;;;;2.22;2.13;;;8.10;99.90;;;;;;5037634;28;20662;-75
2022/11/12 01:14:07;;;;;;;2.50;2.40;;;8.10;99.90;;;;;;5037972;28;20191;-73
2022/11/12 01:16:36;;;;;;;3.20;2.50;;;8.20;99.90;;;;;;5037659;28;20211;-73
2022/11/12 01:19:05;;;;;;;2.67;2.47;;;8.20;99.90;;;;;;5043589;28;20215;-75
2022/11/12 01:21:36;;;;;;;2.60;2.42;;;8.20;99.90;;;;;;5040289;28;20207;-75
2022/11/12 01:24:04;;;;;;;2.70;2.50;;;8.20;99.90;;;;;;5045957;28;20290;-74
2022/11/12 01:26:31;;;;;;;2.75;2.55;;;8.20;99.90;;;;;;5040761;28;20203;-73
2022/11/12 01:28:58;;;;;;;2.47;2.38;;;8.20;99.90;;;;;;5040495;28;20726;-74
2022/11/12 01:31:28;;;;;;;2.20;2.10;;;8.10;99.90;;;;;;5042156;28;20206;-75
2022/11/12 01:33:58;;;;;;;2.72;2.58;;;8.10;99.90;;;;;;5039731;28;20701;-74
2022/11/12 01:36:27;;;;;;;2.80;2.60;;;8.10;99.90;;;;;;5039844;28;20200;-72
2022/11/12 01:38:55;;;;;;;2.85;2.65;;;8.10;99.90;;;;;;5044498;28;20219;-72
2022/11/12 01:41:25;;;;;;;2.92;2.72;;;8.10;99.90;;;;;;5042817;28;20677;-73
2022/11/12 01:44:11;;;;;;;2.97;2.78;;;8.00;99.90;;;;;;5048516;28;20328;-73
2022/11/12 01:46:49;;;;;;;2.70;2.60;;;8.00;99.90;;;;;;5038199;28;20203;-73
2022/11/12 01:49:21;;;;;;;2.33;2.22;;;7.90;99.90;;;;;;5039291;28;20218;-74
2022/11/12 01:51:51;;;;;;;2.65;2.55;;;7.90;99.90;;;;;;5037374;28;20198;-74
2022/11/12 01:54:21;;;;;;;2.85;2.65;;;7.90;99.90;;;;;;5038550;28;20570;-74
2022/11/12 01:56:50;;;;;;;2.63;2.47;;;7.80;99.90;;;;;;5036646;28;20662;-72
2022/11/12 01:59:21;;;;;;;2.35;2.25;;;7.80;99.90;;;;;;5037615;28;20219;-73
2022/11/12 02:01:50;;;;;;;2.97;2.78;;;7.70;99.90;;;;;;5038851;28;20197;-72
2022/11/12 02:04:18;;;;;;;2.65;2.45;;;7.60;99.90;;;;;;5042811;28;20290;-72
2022/11/12 02:06:46;;;;;;;2.50;2.40;;;7.60;99.90;;;;;;5042083;28;20203;-75
2022/11/12 02:10:09;;;;;;;2.83;2.63;;;7.50;99.90;;;;;;5038622;28;20238;-72
2022/11/12 02:15:21;;;;;;;3.67;2.80;;;7.60;99.90;;;;;;5040890;28;20197;-73
2022/11/12 02:17:50;;;;;;;2.67;2.47;;;7.60;99.90;;;;;;5045564;28;20223;-73
2022/11/12 02:20:17;;;;;;;2.60;2.47;;;7.60;99.90;;;;;;5043443;28;20375;-73
2022/11/12 02:22:46;;;;;;;3.20;2.97;;;7.60;99.90;;;;;;5034917;28;20220;-74
2022/11/12 02:25:16;;;;;;;2.50;2.30;;;7.60;99.90;;;;;;5041870;28;20199;-74
2022/11/12 02:27:45;;;;;;;2.50;2.40;;;7.60;99.90;;;;;;5042418;28;20219;-72
2022/11/12 02:30:13;;;;;;;2.97;2.78;;;7.60;99.90;;;;;;5039469;28;20689;-73
2022/11/12 02:32:40;;;;;;;2.50;2.40;;;7.60;99.90;;;;;;5039549;28;20215;-72
2022/11/12 02:35:08;;;;;;;2.70;2.50;;;7.60;99.90;;;;;;5039548;28;20204;-72
2022/11/12 02:37:35;;;;;;;2.75;2.65;;;7.60;99.90;;;;;;5036259;28;20215;-72
2022/11/12 02:40:05;;;;;;;2.60;2.50;;;7.60;99.90;;;;;;5035511;28;20682;-73
2022/11/12 02:42:32;;;;;;;2.45;2.35;;;7.60;99.90;;;;;;5038446;28;20277;-72
2022/11/12 02:44:59;;;;;;;2.70;2.50;;;7.50;99.90;;;;;;5046488;28;20569;-73
2022/11/12 02:47:26;;;;;;;2.33;2.22;;;7.60;99.90;;;;;;5040029;28;20558;-73
2022/11/12 02:49:53;;;;;;;2.45;2.35;;;7.60;99.90;;;;;;5043436;28;20214;-72
2022/11/12 02:52:20;;;;;;;2.55;2.40;;;7.60;99.90;;;;;;5047542;28;20731;-72
2022/11/12 02:54:48;;;;;;;2.60;2.50;;;7.60;99.90;;;;;;5039956;28;20666;-76
2022/11/12 02:57:16;;;;;;;2.90;2.70;;;7.60;99.90;;;;;;5044304;28;20219;-72
2022/11/12 02:59:43;;;;;;;2.95;2.83;;;7.50;99.90;;;;;;5041253;28;20200;-74
2022/11/12 03:02:10;;;;;;;2.80;2.60;;;7.60;99.90;;;;;;5046495;28;20792;-74
2022/11/12 03:04:38;;;;;;;3.20;3.00;;;7.60;99.90;;;;;;5048054;28;20218;-73
2022/11/12 03:07:05;;;;;;;2.55;2.45;;;7.60;99.90;;;;;;5035555;28;20223;-72
2022/11/12 03:09:32;;;;;;;2.70;2.60;;;7.60;99.90;;;;;;5038546;28;20669;-74
2022/11/12 03:11:59;;;;;;;2.85;2.75;;;7.60;99.90;;;;;;5036965;28;20234;-71
2022/11/12 03:14:28;;;;;;;3.00;2.80;;;7.50;99.90;;;;;;5040649;28;20214;-74
2022/11/12 03:16:55;;;;;;;2.58;2.47;;;7.50;99.90;;;;;;5042011;28;20218;-73
2022/11/12 03:19:22;;;;;;;2.25;2.15;;;7.60;99.90;;;;;;5037026;28;20218;-73
2022/11/12 03:21:49;;;;;;;2.45;2.35;;;7.60;99.90;;;;;;5039134;28;20207;-73
2022/11/12 03:24:16;;;;;;;2.30;2.20;;;7.60;99.90;;;;;;5040863;28;20199;-72
2022/11/12 03:26:44;;;;;;;3.03;2.80;;;7.60;99.90;;;;;;5041958;28;20232;-73
2022/11/12 03:29:11;;;;;;;2.65;2.55;;;7.60;99.90;;;;;;5037384;28;20707;-72
2022/11/12 03:31:39;;;;;;;2.80;2.70;;;7.60;99.90;;;;;;5038590;28;20697;-71
2022/11/12 03:34:07;;;;;;;2.53;2.42;;;7.60;99.90;;;;;;5039106;28;20222;-73
2022/11/12 03:36:34;;;;;;;2.30;2.20;;;7.60;99.90;;;;;;5037142;28;20658;-72
2022/11/12 03:39:01;;;;;;;2.50;2.30;;;7.60;99.90;;;;;;5040656;28;20692;-73
2022/11/12 03:41:28;;;;;;;2.80;2.63;;;7.60;99.90;;;;;;5037833;28;20292;-72
2022/11/12 03:43:55;;;;;;;2.70;2.60;;;7.50;99.90;;;;;;5039274;28;20226;-72
2022/11/12 03:46:22;;;;;;;2.55;2.45;;;7.40;99.90;;;;;;5044826;28;20209;-72
2022/11/12 03:48:52;;;;;;;2.92;2.72;;;7.40;99.90;;;;;;5036387;28;20222;-75
2022/11/12 03:51:20;;;;;;;2.70;2.60;;;7.50;99.90;;;;;;5040434;28;20312;-75
2022/11/12 03:53:47;;;;;;;2.70;2.50;;;7.50;99.90;;;;;;5038321;28;20308;-75
2022/11/12 03:56:14;;;;;;;2.67;2.30;;;7.60;99.90;;;;;;5035979;28;20195;-71
2022/11/12 03:58:41;;;;;;;2.10;2.00;;;7.60;99.90;;;;;;5035496;28;20215;-73
2022/11/12 04:01:09;;;;;;;3.85;2.92;;;7.50;99.90;;;;;;5042154;28;20199;-74
2022/11/12 04:03:36;;;;;;;2.83;2.63;;;7.60;99.90;;;;;;5035653;28;20223;-73
2022/11/12 04:08:49;;;;;;;2.92;2.72;;;7.60;99.90;;;;;;5035150;28;20242;-73
2022/11/12 04:11:17;;;;;;;2.40;2.30;;;7.70;99.90;;;;;;5041272;28;20788;-72
2022/11/12 04:13:46;;;;;;;2.80;2.65;;;7.70;99.90;;;;;;5035767;28;20579;-73
2022/11/12 04:21:53;;;;;;;2.65;2.55;;;7.70;99.90;;;;;;5039202;28;20257;-72
2022/11/12 04:27:10;;;;;;;2.63;2.50;;;7.70;99.90;;;;;;5037977;28;20217;-73
2022/11/12 04:32:22;;;;;;;2.80;2.60;;;7.60;99.90;;;;;;5036048;28;20763;-73
2022/11/12 04:34:49;;;;;;;2.72;2.58;;;7.60;99.90;;;;;;5039388;28;20290;-72
2022/11/12 04:37:18;;;;;;;2.65;2.45;;;7.60;99.90;;;;;;5039687;28;20219;-73
2022/11/12 04:39:46;;;;;;;2.35;2.15;;;7.70;99.90;;;;;;5034709;28;20206;-73
2022/11/12 04:45:00;;;;;;;2.55;2.45;;;7.70;99.90;;;;;;5041202;28;20234;-71
2022/11/12 04:47:33;;;;;;;2.20;2.10;;;7.80;99.90;;;;;;5041960;28;20250;-72
2022/11/12 04:50:00;;;;;;;2.53;2.42;;;7.80;99.90;;;;;;5047388;28;20221;-73
2022/11/12 04:52:30;;;;;;;2.72;2.63;;;7.80;99.90;;;;;;5040333;28;20223;-72
2022/11/12 04:54:58;;;;;;;2.67;2.50;;;7.80;99.90;;;;;;5040999;28;20210;-73
2022/11/12 04:57:26;;;;;;;2.80;2.60;;;7.70;99.90;;;;;;5040865;28;20721;-72
2022/11/12 04:59:53;;;;;;;2.50;2.30;;;7.80;99.90;;;;;;5040451;28;20219;-72
2022/11/12 05:02:20;;;;;;;2.55;2.45;;;7.80;99.90;;;;;;5041358;28;20226;-72
2022/11/12 05:04:47;;;;;;;2.40;2.25;;;7.90;99.90;;;;;;5044325;28;20317;-72
2022/11/12 05:07:15;;;;;;;2.60;2.50;;;7.90;99.90;;;;;;5045776;28;20219;-72
2022/11/12 05:09:45;;;;;;;2.75;2.55;;;7.90;99.90;;;;;;5051299;22;20231;-72
2022/11/12 05:12:12;;;;;;;2.75;2.55;;;7.90;99.90;;;;;;5044404;28;20220;-71
2022/11/12 05:14:39;;;;;;;2.67;2.47;;;7.90;99.90;;;;;;5057402;28;20206;-72
2022/11/12 05:17:07;;;;;;;2.45;2.35;;;7.90;99.90;;;;;;5046799;28;20227;-71
2022/11/12 05:19:34;;;;;;;2.35;2.20;;;7.90;99.90;;;;;;5042157;28;20278;-71
2022/11/12 05:22:08;;;;;;;2.53;2.35;;;7.90;99.90;;;;;;5034646;28;20215;-71
2022/11/12 05:24:37;;;;;;;2.70;2.60;;;7.90;99.90;;;;;;5034698;28;20583;-71
2022/11/12 05:27:09;;;;;;;2.22;2.13;;;7.80;99.90;;;;;;5030143;28;20231;-71
2022/11/12 05:29:36;;;;;;;2.90;2.70;;;7.80;99.90;;;;;;5034209;28;20604;-70
2022/11/12 05:32:04;;;;;;;2.72;2.60;;;7.80;99.90;;;;;;5032248;28;20826;-72
2022/11/12 05:34:31;;;;;;;3.30;3.10;;;7.70;99.90;;;;;;5035324;28;20199;-71
2022/11/12 05:36:59;;;;;;;4.25;3.95;;;7.70;99.90;;;;;;5034719;28;20227;-72
2022/11/12 05:39:26;;;;;;;4.18;3.88;;;7.70;99.90;;;;;;5036388;28;20692;-71
2022/11/12 05:41:54;;;;;;;3.55;3.35;;;7.70;99.90;;;;;;5029164;28;20219;-71
2022/11/12 05:44:23;;;;;;;3.33;3.13;;;7.80;99.90;;;;;;5033542;28;20199;-71
2022/11/12 05:46:50;;;;;;;3.25;3.05;;;7.80;99.90;;;;;;5035016;28;20211;-71
2022/11/12 05:49:18;;;;;;;2.90;2.70;;;7.80;99.90;;;;;;5035289;28;20227;-71
2022/11/12 05:51:45;;;;;;;3.35;3.15;;;7.80;99.90;;;;;;5034852;28;20747;-71
2022/11/12 05:54:13;;;;;;;3.03;2.83;;;7.80;99.90;;;;;;5031646;28;20203;-71
2022/11/12 05:56:40;;;;;;;2.80;2.60;;;7.80;99.90;;;;;;5038164;28;20195;-72
2022/11/12 05:59:10;;;;;;;4.53;2.30;;;7.80;99.90;;;;;;5039940;28;20250;-71
2022/11/12 06:01:42;;;;;;;2.97;2.78;;;7.70;99.90;;;;;;5033319;28;20205;-71
2022/11/12 06:04:11;;;;;;;2.55;2.40;;;7.70;99.90;;;;;;5028277;28;20665;-71
2022/11/12 06:06:38;;;;;;;2.72;2.53;;;7.60;99.90;;;;;;5034118;28;20192;-72
2022/11/12 06:09:05;;;;;;;2.65;2.45;;;7.60;99.90;;;;;;5034829;28;20227;-71
2022/11/12 06:11:33;;;;;;;2.53;2.40;;;7.60;99.90;;;;;;5031782;28;20226;-71
2022/11/12 06:14:00;;;;;;;2.10;2.00;;;7.60;99.90;;;;;;5037508;28;20199;-70
2022/11/12 06:16:28;;;;;;;2.55;2.35;;;7.60;99.90;;;;;;5039486;28;20210;-70
2022/11/12 06:18:57;;;;;;;2.35;2.25;;;7.60;99.90;;;;;;5031035;28;20231;-70
2022/11/12 06:21:26;;;;;;;2.72;2.50;;;7.60;99.90;;;;;;5032318;28;20238;-70
2022/11/12 06:23:55;;;;;;;2.50;2.38;;;7.60;99.90;;;;;;5033819;28;20719;-72
2022/11/12 06:26:24;;;;;;;2.45;2.35;;;7.60;99.90;;;;;;5029446;28;20203;-72
2022/11/12 06:28:51;;;;;;;2.35;2.25;;;7.60;99.90;;;;;;5029465;28;20214;-72
2022/11/12 06:31:19;;;;;;;2.47;2.38;;;7.60;99.90;;;;;;5032064;28;20599;-71
2022/11/12 06:33:48;;;;;;;2.30;2.20;;;7.60;99.90;;;;;;5035946;28;20225;-71
2022/11/12 06:36:19;;;;;;;2.45;2.35;;;7.60;99.90;;;;;;5034641;28;20210;-71
2022/11/12 06:38:47;;;;;;;2.63;2.17;;;7.70;99.90;;;;;;5034466;28;20225;-70
2022/11/12 06:41:15;;;;;;;2.30;2.17;;;7.70;99.90;;;;;;5025250;28;20739;-71
2022/11/12 06:43:43;;;;;;;2.28;2.17;;;7.80;99.90;;;;;;5028513;28;20221;-71
2022/11/12 06:46:13;;;;;;;2.47;2.38;;;7.80;99.90;;;;;;5026769;28;20199;-71
2022/11/12 06:48:41;;;;;;;2.50;2.30;;;7.70;99.90;;;;;;5035376;28;20231;-71
2022/11/12 06:51:11;;;;;;;2.40;2.30;;;7.70;99.90;;;;;;5031546;28;20223;-71
2022/11/12 06:53:39;;;;;;;2.63;2.53;;;7.80;99.90;;;;;;5033534;28;20223;-71
2022/11/12 06:56:08;;;;;;;2.53;2.30;;;7.80;99.90;;;;;;5038466;28;20694;-71
2022/11/12 06:58:36;;;;;;;2.40;2.30;;;7.80;99.90;;;;;;5037780;28;20388;-71
2022/11/12 07:01:08;;;;;;;2.53;2.42;;;7.90;99.90;;;;;;5036106;28;20894;-71
2022/11/12 07:03:35;;;;;;;2.78;2.58;;;7.90;99.90;;;;;;5030233;28;20230;-71
2022/11/12 07:06:08;;;;;;;2.80;2.60;;;8.00;99.90;;;;;;5036690;28;20681;-70
2022/11/12 07:08:35;;;;;;;2.60;2.50;;;8.00;99.90;;;;;;5037819;28;20222;-71
2022/11/12 07:11:05;;;;;;;2.15;2.05;;;8.10;99.90;;;;;;5037706;28;20215;-71
2022/11/12 07:13:32;;;;;;;2.47;2.38;;;8.10;99.90;;;;;;5037022;28;20619;-71
2022/11/12 07:16:00;;;;;;;2.75;2.60;;;8.20;99.90;;;;;;5039659;28;20203;-71
2022/11/12 07:18:28;;;;;;;2.60;2.50;;;8.30;99.90;;;;;;5037477;28;20222;-70
2022/11/12 07:20:59;;;;;;;2.50;2.40;;;8.30;99.90;;;;;;5034992;28;20238;-70
2022/11/12 07:23:27;;;;;;;2.67;2.47;;;8.40;99.90;;;;;;5037910;28;20832;-71
2022/11/12 07:25:59;;;;;;;4.00;2.50;;;8.40;99.90;;;;;;5036950;28;20200;-71
2022/11/12 07:28:29;;;;;;;3.10;2.90;;;8.40;99.90;;;;;;5033298;28;20231;-71
2022/11/12 07:30:57;;;;;;;2.97;2.78;;;8.50;99.90;;;;;;5035838;28;20211;-71
2022/11/12 07:33:25;;;;;;;3.20;3.00;;;8.60;99.90;;;;;;5033161;28;20291;-71
2022/11/12 07:36:00;;;;;;;3.28;3.08;;;8.70;99.90;;;;;;5032768;28;20721;-71
2022/11/12 07:38:29;;;;;;;3.30;3.08;;;8.70;99.90;;;;;;5032997;28;20726;-71
2022/11/12 07:41:01;;;;;;;3.80;3.50;;;8.70;99.90;;;;;;5037648;28;20218;-71
2022/11/12 07:43:31;;;;;;;4.78;3.22;;;8.70;99.90;;;;;;5036645;28;20258;-72
2022/11/12 07:45:59;;;;;;;3.65;3.45;;;8.70;99.90;;;;;;5032997;28;20206;-71
2022/11/12 07:48:27;;;;;;;3.30;3.10;;;8.70;99.90;;;;;;5036466;28;20311;-72
2022/11/12 07:51:00;;;;;;;3.58;3.38;;;8.80;99.90;;;;;;5034550;28;20234;-71
2022/11/12 07:53:28;;;;;;;3.63;3.33;;;8.90;99.90;;;;;;5030674;28;20310;-71
2022/11/12 07:55:56;;;;;;;3.33;3.13;;;8.90;99.90;;;;;;5031860;28;20540;-71
2022/11/12 07:58:24;;;;;;;3.05;2.85;;;9.00;99.90;;;;;;5032119;28;20218;-71
2022/11/12 08:00:53;;;;;;;3.60;3.20;;;9.10;99.90;;;;;;5033304;28;20680;-71
2022/11/12 08:03:21;;;;;;;3.40;3.17;;;9.30;99.90;;;;;;5028618;28;20223;-71
2022/11/12 08:05:48;;;;;;;4.03;3.63;;;9.60;99.90;;;;;;5037859;28;20211;-71
2022/11/12 08:08:16;;;;;;;3.30;3.10;;;9.90;99.90;;;;;;5029110;28;20231;-71
2022/11/12 08:10:45;;;;;;;3.72;3.42;;;10.30;99.90;;;;;;5049794;28;20230;-71
2022/11/12 08:13:13;;;;;;;2.97;2.78;;;10.50;99.90;;;;;;5032051;28;20220;-72
2022/11/12 08:15:40;;;;;;;3.65;3.35;;;10.80;99.90;;;;;;5031318;28;20195;-71
2022/11/12 08:18:08;;;;;;;4.20;3.90;;;11.10;99.90;;;;;;5027757;28;20211;-70
2022/11/12 08:20:36;;;;;;;4.47;4.13;;;11.30;99.90;;;;;;5029337;28;20207;-70
2022/11/12 08:23:04;;;;;;;4.50;3.92;;;11.40;99.90;;;;;;5033484;28;20258;-70
2022/11/12 08:25:31;;;;;;;3.85;3.40;;;11.40;99.90;;;;;;5028502;28;20204;-70
2022/11/12 08:27:59;;;;;;;3.75;3.45;;;11.40;99.90;;;;;;5034559;28;20223;-71
2022/11/12 08:30:29;;;;;;;4.30;3.90;;;11.40;99.90;;;;;;5035106;28;20199;-71
2022/11/12 08:32:58;;;;;;;4.05;3.53;;;11.50;99.90;;;;;;5030940;28;20224;-71
2022/11/12 08:35:28;;;;;;;3.58;3.05;;;11.60;99.90;;;;;;5036602;28;20226;-71
2022/11/12 08:37:59;;;;;;;3.60;3.30;;;11.50;99.90;;;;;;5035476;28;20592;-72
2022/11/12 08:40:27;;;;;;;4.05;3.65;;;11.50;99.90;;;;;;5031371;28;20199;-72
2022/11/12 08:42:58;;;;;;;5.13;3.70;;;11.40;99.90;;;;;;5032468;28;20640;-71
2022/11/12 08:45:25;;;;;;;3.60;3.30;;;11.40;99.90;;;;;;5031003;28;20286;-71
2022/11/12 08:47:53;;;;;;;4.28;3.63;;;11.60;99.90;;;;;;5035406;28;20223;-71
2022/11/12 08:50:20;;;;;;;4.20;3.30;;;11.80;99.90;;;;;;5034093;28;20635;-72
2022/11/12 08:52:49;;;;;;;4.03;3.63;;;11.80;99.90;;;;;;5035100;28;20227;-71
2022/11/12 08:55:16;;;;;;;4.68;4.28;;;12.00;99.90;;;;;;5031605;28;20241;-72
2022/11/12 08:57:44;;;;;;;4.72;3.60;;;12.30;99.90;;;;;;5028087;28;20720;-70
2022/11/12 09:00:14;;;;;;;4.10;3.70;;;12.30;99.90;;;;;;5032722;28;20223;-70
2022/11/12 09:02:41;;;;;;;3.50;3.20;;;12.50;99.90;;;;;;5031050;28;20603;-71
2022/11/12 09:05:09;;;;;;;3.40;3.10;;;12.60;99.90;;;;;;5030393;28;20196;-71
2022/11/12 09:07:36;;;;;;;4.80;3.60;;;13.00;99.90;;;;;;5028393;28;20230;-71
2022/11/12 09:10:06;;;;;;;6.68;4.40;;;13.20;99.90;;;;;;5032248;28;20235;-70
2022/11/12 09:12:33;;;;;;;4.72;3.72;;;13.30;99.90;;;;;;5033572;28;20326;-70
2022/11/12 09:15:01;;;;;;;5.28;3.30;;;13.50;99.90;;;;;;5040597;28;20269;-70
2022/11/12 09:17:29;;;;;;;4.30;3.83;;;13.80;99.90;;;;;;5035889;28;20238;-70
2022/11/12 09:19:57;;;;;;;4.53;3.70;;;13.90;99.90;;;;;;5030379;28;20216;-70
2022/11/12 09:22:24;;;;;;;3.40;3.10;;;13.50;99.90;;;;;;5035692;28;20215;-70
2022/11/12 09:24:51;;;;;;;3.90;3.60;;;13.10;99.90;;;;;;5030144;28;20191;-70
2022/11/12 09:27:20;;;;;;;4.00;3.70;;;12.70;99.90;;;;;;5038171;28;20582;-71
2022/11/12 09:29:47;;;;;;;4.55;3.80;;;12.40;99.90;;;;;;5039042;28;20231;-70
2022/11/12 09:32:14;;;;;;;3.90;3.50;;;12.20;99.90;;;;;;5040797;28;20332;-70
2022/11/12 09:34:42;;;;;;;3.55;3.25;;;12.10;99.90;;;;;;5045134;28;20203;-70
2022/11/12 09:37:09;;;;;;;4.10;3.50;;;11.90;99.90;;;;;;5041795;28;20228;-70
2022/11/12 09:39:36;;;;;;;6.47;3.42;;;12.10;99.90;;;;;;5048449;28;20228;-70
2022/11/12 09:42:07;;;;;;;3.58;3.28;;;12.20;99.90;;;;;;5032877;28;20227;-70
2022/11/12 09:44:39;;;;;;;3.83;3.28;;;12.50;99.90;;;;;;5037840;28;20198;-70
2022/11/12 09:47:14;;;;;;;4.05;3.75;;;13.10;99.90;;;;;;5039086;28;20227;-70
2022/11/12 09:49:46;;;;;;;4.30;3.90;;;13.70;99.90;;;;;;5039840;28;20215;-69
2022/11/12 09:52:19;;;;;;;4.20;3.80;;;14.20;99.90;;;;;;5030344;28;20699;-69
2022/11/12 09:54:52;;;;;;;3.50;3.20;;;14.50;99.90;;;;;;5027557;28;20196;-69
2022/11/12 09:57:20;;;;;;;3.55;3.08;;;14.70;99.90;;;;;;5027148;28;20214;-69
2022/11/12 09:59:48;;;;;;;3.28;2.92;;;14.60;99.90;;;;;;5032886;28;20215;-69
2022/11/12 10:02:28;;;;;;;4.10;3.45;;;14.70;99.90;;;;;;5031901;28;20522;-70
2022/11/12 10:05:25;;;;;;;3.72;3.30;;;14.80;99.90;;;;;;5031819;28;20196;-69
2022/11/12 10:08:05;;;;;;;4.68;3.22;;;15.20;99.90;;;;;;5024667;28;20638;-70
2022/11/12 10:10:41;;;;;;;3.63;3.30;;;15.80;99.90;;;;;;5029673;28;20211;-69
2022/11/12 10:13:25;;;;;;;4.05;3.30;;;16.40;99.90;;;;;;5032677;28;20727;-70
2022/11/12 10:19:01;;;;;;;5.35;3.45;;;16.50;99.90;;;;;;5030046;28;20606;-70
2022/11/12 10:21:36;;;;;;;3.85;3.25;;;16.30;99.90;;;;;;5039352;28;20241;-70
2022/11/12 10:24:07;;;;;;;3.78;2.85;;;16.10;99.90;;;;;;5047345;28;20315;-70
2022/11/12 10:26:37;;;;;;;2.72;2.40;;;15.70;99.90;;;;;;5035865;28;20217;-70
2022/11/12 10:29:14;;;;;;;3.47;3.15;;;15.40;99.90;;;;;;5027649;28;20227;-70
2022/11/12 10:31:42;;;;;;;2.90;2.70;;;15.10;99.90;;;;;;5027936;28;20580;-70
2022/11/12 10:34:17;;;;;;;3.25;2.95;;;14.70;99.90;;;;;;5032385;28;20911;-69
2022/11/12 10:36:49;;;;;;;2.70;2.50;;;14.50;99.90;;;;;;5025052;28;20195;-70
2022/11/12 10:39:36;;;;;;;2.72;2.53;;;14.40;99.90;;;;;;5023579;28;20708;-70
2022/11/12 10:42:06;;;;;;;2.83;2.63;;;14.30;99.90;;;;;;5025964;28;20596;-71
2022/11/12 10:44:33;;;;;;;3.15;2.95;;;14.50;99.90;;;;;;5031019;28;20223;-70
2022/11/12 10:47:24;;;;;;;3.25;3.05;;;14.90;99.90;;;;;;5023658;28;20223;-70
2022/11/12 10:50:04;;;;;;;3.47;3.05;;;15.20;99.90;;;;;;5027265;28;20741;-70
2022/11/12 10:52:32;;;;;;;2.75;2.55;;;15.10;99.90;;;;;;5025387;28;20230;-71
2022/11/12 10:55:07;;;;;;;2.90;2.70;;;15.00;99.90;;;;;;5034071;28;20230;-71
2022/11/12 10:57:34;;;;;;;3.53;2.75;;;15.10;99.90;;;;;;5031189;28;20219;-70
2022/11/12 11:00:17;;;;;;;3.53;3.22;;;15.10;99.90;;;;;;5027975;28;20211;-71
2022/11/12 11:02:50;;;;;;;3.15;2.85;;;15.40;99.90;;;;;;5028595;28;20215;-71
2022/11/12 11:05:37;;;;;;;3.10;2.90;;;15.50;99.90;;;;;;5026043;28;20279;-71
2022/11/12 11:08:06;;;;;;;2.97;2.78;;;15.50;99.90;;;;;;5024048;28;20234;-71
2022/11/12 11:10:35;;;;;;;3.03;2.75;;;15.40;99.90;;;;;;5027583;28;20207;-73
2022/11/12 11:13:27;;;;;;;4.30;2.83;;;15.10;99.90;;;;;;5032252;28;20238;-71
2022/11/12 11:16:01;;;;;;;3.38;3.05;;;14.90;99.90;;;;;;5017929;28;20192;-71
2022/11/12 11:18:32;;;;;;;3.13;2.85;;;14.70;99.90;;;;;;5021341;28;20240;-71
2022/11/12 11:21:13;;;;;;;3.92;2.60;;;14.60;99.90;;;;;;5029238;28;20746;-71
2022/11/12 11:23:51;;;;;;;6.68;2.67;;;14.60;99.90;;;;;;5023222;28;20285;-71
2022/11/12 11:26:31;;;;;;;3.03;2.80;;;14.60;99.90;;;;;;5028783;28;20200;-70
2022/11/12 11:29:06;;;;;;;2.92;2.72;;;14.50;99.90;;;;;;5022492;28;20251;-70
2022/11/12 11:31:46;;;;;;;2.50;2.30;;;14.30;99.90;;;;;;5031771;28;20293;-71
2022/11/12 11:34:24;;;;;;;2.70;2.50;;;14.20;99.90;;;;;;5028831;28;20188;-70
2022/11/12 11:37:00;;;;;;;3.10;2.80;;;14.10;99.90;;;;;;5024296;28;20219;-71
2022/11/12 11:39:40;;;;;;;3.00;2.80;;;14.10;99.90;;;;;;5023773;28;20211;-70
2022/11/12 11:42:19;;;;;;;2.40;2.20;;;14.10;99.90;;;;;;5027911;28;20226;-71
2022/11/12 11:44:55;;;;;;;2.80;2.60;;;14.10;99.90;;;;;;5030429;28;20698;-70
2022/11/12 11:47:37;;;;;;;3.03;2.72;;;14.10;99.90;;;;;;5021136;28;20219;-70
2022/11/12 11:50:21;;;;;;;3.20;3.00;;;14.20;99.90;;;;;;5030772;28;20227;-70
2022/11/12 11:53:00;;;;;;;3.60;3.28;;;14.40;99.90;;;;;;5021001;28;20281;-70
2022/11/12 11:55:48;;;;;;;3.55;3.00;;;14.40;99.90;;;;;;5027922;28;20209;-70
2022/11/12 11:58:36;;;;;;;4.55;3.08;;;14.50;99.90;;;;;;5034381;28;20222;-70
2022/11/12 12:01:13;;;;;;;4.20;3.28;;;14.60;99.90;;;;;;5033518;28;20200;-70
2022/11/12 12:03:54;;;;;;;5.63;4.50;;;14.60;99.90;;;;;;5027564;28;20598;-70
2022/11/12 12:06:26;;;;;;;4.65;3.78;;;14.60;99.90;;;;;;5033640;28;20207;-71
2022/11/12 12:09:03;;;;;;;3.15;2.92;;;14.60;99.90;;;;;;5037149;28;20235;-70
2022/11/12 12:11:37;;;;;;;4.35;3.50;;;14.60;99.90;;;;;;5033972;28;20236;-72
2022/11/12 12:14:22;;;;;;;3.40;3.10;;;14.60;99.90;;;;;;5037560;28;20222;-71
2022/11/12 12:17:01;;;;;;;4.05;3.58;;;14.60;99.90;;;;;;5026208;28;20196;-71
2022/11/12 12:19:42;;;;;;;4.10;3.70;;;14.60;99.90;;;;;;5018689;28;20290;-70
2022/11/12 12:22:19;;;;;;;3.53;3.22;;;14.50;99.90;;;;;;5019096;28;20230;-71
2022/11/12 12:24:51;;;;;;;3.63;3.22;;;14.40;99.90;;;;;;5017988;28;20611;-71
2022/11/12 12:27:23;;;;;;;3.63;3.33;;;14.20;99.90;;;;;;5017020;28;20228;-71
2022/11/12 12:29:54;;;;;;;3.72;3.42;;;14.20;99.90;;;;;;5019548;28;20218;-70
2022/11/12 12:32:25;;;;;;;4.55;3.95;;;14.10;99.90;;;;;;5018926;28;20695;-71
2022/11/12 12:34:59;;;;;;;4.60;4.20;;;14.20;99.90;;;;;;5019201;28;20295;-70
2022/11/12 12:37:37;;;;;;;5.65;4.05;;;14.50;99.90;;;;;;5017143;28;20223;-70
2022/11/12 12:40:14;;;;;;;4.35;3.90;;;14.70;99.90;;;;;;5019332;28;20224;-71
2022/11/12 12:42:46;;;;;;;5.88;3.70;;;15.20;99.90;;;;;;5016366;28;20297;-71
2022/11/12 12:45:32;;;;;;;4.03;3.33;;;15.60;99.90;;;;;;5024169;28;20680;-72
2022/11/12 12:48:01;;;;;;;3.33;3.03;;;15.80;99.90;;;;;;5018812;28;20224;-70
2022/11/12 12:50:30;;;;;;;3.17;2.88;;;15.80;99.90;;;;;;5028125;28;20207;-71
2022/11/12 12:53:04;;;;;;;3.22;2.92;;;15.90;99.90;;;;;;5029349;28;20226;-70
2022/11/12 12:55:37;;;;;;;3.63;3.33;;;15.90;99.90;;;;;;5020717;28;20208;-70
2022/11/12 12:58:05;;;;;;;3.33;3.03;;;15.80;99.90;;;;;;5033649;28;20228;-71
2022/11/12 13:00:37;;;;;;;4.25;3.55;;;15.60;99.90;;;;;;5027281;28;20557;-70
2022/11/12 13:03:04;;;;;;;3.78;3.47;;;15.50;99.90;;;;;;5038387;28;20219;-70
2022/11/12 13:05:33;;;;;;;3.67;3.38;;;15.40;99.90;;;;;;5028846;28;20211;-70
2022/11/12 13:08:08;;;;;;;3.17;2.97;;;15.40;99.90;;;;;;5032450;28;20613;-71
2022/11/12 13:10:51;;;;;;;3.38;3.08;;;15.30;99.90;;;;;;5027346;28;20683;-70
2022/11/12 13:13:30;;;;;;;3.63;3.08;;;15.20;99.90;;;;;;5033228;28;20241;-71
2022/11/12 13:15:59;;;;;;;4.45;3.30;;;15.10;99.90;;;;;;5035837;28;20199;-71
2022/11/12 13:19:00;;;;;;;3.33;3.08;;;15.10;99.90;;;;;;5025456;28;20223;-71
2022/11/12 13:21:29;;;;;;;3.03;2.75;;;15.00;99.90;;;;;;5023336;28;20277;-70
2022/11/12 13:24:07;;;;;;;3.47;2.70;;;15.00;99.90;;;;;;5028846;28;20735;-70
2022/11/12 13:26:52;;;;;;;2.40;2.20;;;15.00;99.90;;;;;;5036264;28;20198;-71
2022/11/12 13:29:41;;;;;;;2.92;2.60;;;14.90;99.90;;;;;;5033467;28;20246;-70
2022/11/12 13:32:36;;;;;;;2.80;2.60;;;14.90;99.90;;;;;;5029464;28;20580;-71